sensor_id;sensor_type;location;lat;lon;timestamp;P1;durP1;ratioP1;P2;durP2;ratioP2
25155;SDS011;21913;52.456;13.634;2023-06-22T00:04:06;4.80;;;3.30;;
25155;SDS011;21913;52.456;13.634;2023-06-22T00:09:07;4.55;;;3.50;;
25155;SDS011;21913;52.456;13.634;2023-06-22T00:14:09;4.07;;;3.30;;
25155;SDS011;21913;52.456;13.634;2023-06-22T00:19:11;4.35;;;3.22;;
25155;SDS011;21913;52.456;13.634;2023-06-22T00:24:12;4.38;;;3.17;;
25155;SDS011;21913;52.456;13.634;2023-06-22T00:29:14;3.40;;;2.90;;
25155;SDS011;21913;52.456;13.634;2023-06-22T00:34:16;5.60;;;3.15;;
25155;SDS011;21913;52.456;13.634;2023-06-22T00:39:17;3.65;;;2.90;;
25155;SDS011;21913;52.456;13.634;2023-06-22T00:44:19;4.95;;;3.03;;
25155;SDS011;21913;52.456;13.634;2023-06-22T00:49:21;3.10;;;2.80;;
25155;SDS011;21913;52.456;13.634;2023-06-22T00:54:24;3.35;;;2.70;;
25155;SDS011;21913;52.456;13.634;2023-06-22T00:59:27;4.60;;;3.13;;
25155;SDS011;21913;52.456;13.634;2023-06-22T01:04:34;4.43;;;3.35;;
25155;SDS011;21913;52.456;13.634;2023-06-22T01:09:40;4.38;;;3.08;;
25155;SDS011;21913;52.456;13.634;2023-06-22T01:14:55;4.60;;;3.00;;
25155;SDS011;21913;52.456;13.634;2023-06-22T01:20:03;3.72;;;2.90;;
25155;SDS011;21913;52.456;13.634;2023-06-22T01:26:08;4.22;;;3.30;;
25155;SDS011;21913;52.456;13.634;2023-06-22T01:30:45;4.20;;;2.80;;
25155;SDS011;21913;52.456;13.634;2023-06-22T01:35:49;3.65;;;2.97;;
25155;SDS011;21913;52.456;13.634;2023-06-22T01:40:51;3.75;;;3.03;;
25155;SDS011;21913;52.456;13.634;2023-06-22T01:45:54;3.95;;;3.00;;
25155;SDS011;21913;52.456;13.634;2023-06-22T01:50:57;4.57;;;2.90;;
25155;SDS011;21913;52.456;13.634;2023-06-22T01:55:59;4.00;;;2.83;;
25155;SDS011;21913;52.456;13.634;2023-06-22T02:06:14;3.72;;;2.88;;
25155;SDS011;21913;52.456;13.634;2023-06-22T02:11:20;3.57;;;3.10;;
25155;SDS011;21913;52.456;13.634;2023-06-22T02:16:24;3.30;;;2.70;;
25155;SDS011;21913;52.456;13.634;2023-06-22T02:21:26;2.75;;;2.47;;
25155;SDS011;21913;52.456;13.634;2023-06-22T02:26:27;2.90;;;2.60;;
25155;SDS011;21913;52.456;13.634;2023-06-22T02:31:30;2.95;;;2.65;;
25155;SDS011;21913;52.456;13.634;2023-06-22T02:36:31;3.15;;;2.80;;
25155;SDS011;21913;52.456;13.634;2023-06-22T02:41:34;3.38;;;2.88;;
25155;SDS011;21913;52.456;13.634;2023-06-22T02:46:36;2.80;;;2.50;;
25155;SDS011;21913;52.456;13.634;2023-06-22T02:51:38;3.03;;;2.60;;
25155;SDS011;21913;52.456;13.634;2023-06-22T02:56:42;3.10;;;2.80;;
25155;SDS011;21913;52.456;13.634;2023-06-22T03:01:44;3.80;;;2.80;;
25155;SDS011;21913;52.456;13.634;2023-06-22T03:11:55;3.90;;;2.50;;
25155;SDS011;21913;52.456;13.634;2023-06-22T03:17:01;3.30;;;2.70;;
25155;SDS011;21913;52.456;13.634;2023-06-22T03:22:03;4.43;;;2.78;;
25155;SDS011;21913;52.456;13.634;2023-06-22T03:27:05;4.10;;;2.97;;
25155;SDS011;21913;52.456;13.634;2023-06-22T03:32:08;3.28;;;2.90;;
25155;SDS011;21913;52.456;13.634;2023-06-22T03:37:09;4.00;;;2.85;;
25155;SDS011;21913;52.456;13.634;2023-06-22T03:42:11;3.65;;;2.60;;
25155;SDS011;21913;52.456;13.634;2023-06-22T03:47:14;3.35;;;2.72;;
25155;SDS011;21913;52.456;13.634;2023-06-22T03:52:15;4.22;;;2.65;;
25155;SDS011;21913;52.456;13.634;2023-06-22T03:57:17;2.85;;;2.40;;
25155;SDS011;21913;52.456;13.634;2023-06-22T04:02:18;3.20;;;2.70;;
25155;SDS011;21913;52.456;13.634;2023-06-22T04:07:20;3.40;;;2.80;;
25155;SDS011;21913;52.456;13.634;2023-06-22T04:12:21;3.50;;;2.70;;
25155;SDS011;21913;52.456;13.634;2023-06-22T04:17:23;3.08;;;2.63;;
25155;SDS011;21913;52.456;13.634;2023-06-22T04:22:24;3.08;;;2.63;;
25155;SDS011;21913;52.456;13.634;2023-06-22T04:27:26;3.85;;;2.60;;
25155;SDS011;21913;52.456;13.634;2023-06-22T04:32:27;2.80;;;2.40;;
25155;SDS011;21913;52.456;13.634;2023-06-22T04:37:29;2.90;;;2.60;;
25155;SDS011;21913;52.456;13.634;2023-06-22T04:42:30;3.33;;;2.65;;
25155;SDS011;21913;52.456;13.634;2023-06-22T04:47:32;3.25;;;2.60;;
25155;SDS011;21913;52.456;13.634;2023-06-22T04:52:33;3.83;;;2.70;;
25155;SDS011;21913;52.456;13.634;2023-06-22T04:57:35;4.10;;;2.60;;
25155;SDS011;21913;52.456;13.634;2023-06-22T05:02:37;2.83;;;2.53;;
25155;SDS011;21913;52.456;13.634;2023-06-22T05:07:42;2.95;;;2.65;;
25155;SDS011;21913;52.456;13.634;2023-06-22T05:12:46;3.65;;;2.70;;
25155;SDS011;21913;52.456;13.634;2023-06-22T05:17:47;3.38;;;2.55;;
25155;SDS011;21913;52.456;13.634;2023-06-22T05:22:49;2.88;;;2.50;;
25155;SDS011;21913;52.456;13.634;2023-06-22T05:27:51;3.85;;;2.70;;
25155;SDS011;21913;52.456;13.634;2023-06-22T05:32:52;3.55;;;2.78;;
25155;SDS011;21913;52.456;13.634;2023-06-22T05:37:54;3.28;;;2.50;;
25155;SDS011;21913;52.456;13.634;2023-06-22T05:42:55;4.25;;;3.15;;
25155;SDS011;21913;52.456;13.634;2023-06-22T05:47:57;4.35;;;2.90;;
25155;SDS011;21913;52.456;13.634;2023-06-22T05:52:59;3.03;;;2.60;;
25155;SDS011;21913;52.456;13.634;2023-06-22T05:58:00;3.63;;;3.08;;
25155;SDS011;21913;52.456;13.634;2023-06-22T06:03:02;3.25;;;2.88;;
25155;SDS011;21913;52.456;13.634;2023-06-22T06:08:04;3.00;;;2.70;;
25155;SDS011;21913;52.456;13.634;2023-06-22T06:13:07;3.17;;;2.88;;
25155;SDS011;21913;52.456;13.634;2023-06-22T06:18:08;3.60;;;2.83;;
25155;SDS011;21913;52.456;13.634;2023-06-22T06:23:10;3.47;;;2.90;;
25155;SDS011;21913;52.456;13.634;2023-06-22T06:28:12;3.63;;;2.90;;
25155;SDS011;21913;52.456;13.634;2023-06-22T06:33:13;4.03;;;3.17;;
25155;SDS011;21913;52.456;13.634;2023-06-22T06:38:15;4.53;;;2.88;;
25155;SDS011;21913;52.456;13.634;2023-06-22T06:43:16;4.80;;;3.10;;
25155;SDS011;21913;52.456;13.634;2023-06-22T06:48:18;3.05;;;2.75;;
25155;SDS011;21913;52.456;13.634;2023-06-22T06:53:19;2.95;;;2.55;;
25155;SDS011;21913;52.456;13.634;2023-06-22T06:58:21;9.70;;;4.53;;
25155;SDS011;21913;52.456;13.634;2023-06-22T07:03:22;7.35;;;5.18;;
25155;SDS011;21913;52.456;13.634;2023-06-22T07:08:24;6.53;;;4.63;;
25155;SDS011;21913;52.456;13.634;2023-06-22T07:13:25;8.15;;;4.85;;
25155;SDS011;21913;52.456;13.634;2023-06-22T07:18:27;7.32;;;5.45;;
25155;SDS011;21913;52.456;13.634;2023-06-22T07:23:28;8.30;;;5.57;;
25155;SDS011;21913;52.456;13.634;2023-06-22T07:28:30;7.15;;;5.47;;
25155;SDS011;21913;52.456;13.634;2023-06-22T07:33:31;8.63;;;5.80;;
25155;SDS011;21913;52.456;13.634;2023-06-22T07:38:33;8.50;;;5.53;;
25155;SDS011;21913;52.456;13.634;2023-06-22T07:43:35;9.27;;;5.90;;
25155;SDS011;21913;52.456;13.634;2023-06-22T07:48:37;7.25;;;5.72;;
25155;SDS011;21913;52.456;13.634;2023-06-22T07:53:39;7.18;;;5.70;;
25155;SDS011;21913;52.456;13.634;2023-06-22T07:58:42;6.63;;;5.57;;
25155;SDS011;21913;52.456;13.634;2023-06-22T08:03:43;8.90;;;5.60;;
25155;SDS011;21913;52.456;13.634;2023-06-22T08:08:45;6.32;;;5.50;;
25155;SDS011;21913;52.456;13.634;2023-06-22T08:13:46;10.55;;;5.32;;
25155;SDS011;21913;52.456;13.634;2023-06-22T08:18:48;7.60;;;5.18;;
25155;SDS011;21913;52.456;13.634;2023-06-22T08:23:49;7.38;;;5.25;;
25155;SDS011;21913;52.456;13.634;2023-06-22T08:28:51;7.38;;;5.28;;
25155;SDS011;21913;52.456;13.634;2023-06-22T08:33:52;6.63;;;5.63;;
25155;SDS011;21913;52.456;13.634;2023-06-22T08:38:54;8.68;;;5.35;;
25155;SDS011;21913;52.456;13.634;2023-06-22T08:43:56;8.75;;;5.50;;
25155;SDS011;21913;52.456;13.634;2023-06-22T08:48:57;7.82;;;5.38;;
25155;SDS011;21913;52.456;13.634;2023-06-22T08:53:59;5.85;;;5.00;;
25155;SDS011;21913;52.456;13.634;2023-06-22T08:59:00;6.57;;;5.20;;
25155;SDS011;21913;52.456;13.634;2023-06-22T09:04:02;6.43;;;5.15;;
25155;SDS011;21913;52.456;13.634;2023-06-22T09:09:04;7.93;;;5.18;;
25155;SDS011;21913;52.456;13.634;2023-06-22T09:14:05;8.82;;;4.72;;
25155;SDS011;21913;52.456;13.634;2023-06-22T09:19:07;6.75;;;5.00;;
25155;SDS011;21913;52.456;13.634;2023-06-22T09:24:08;8.82;;;5.65;;
25155;SDS011;21913;52.456;13.634;2023-06-22T09:29:10;7.05;;;5.15;;
25155;SDS011;21913;52.456;13.634;2023-06-22T09:34:12;6.28;;;4.68;;
25155;SDS011;21913;52.456;13.634;2023-06-22T09:39:13;6.32;;;4.90;;
25155;SDS011;21913;52.456;13.634;2023-06-22T09:44:15;5.90;;;4.80;;
25155;SDS011;21913;52.456;13.634;2023-06-22T09:49:16;5.90;;;4.70;;
25155;SDS011;21913;52.456;13.634;2023-06-22T09:54:18;7.18;;;4.95;;
25155;SDS011;21913;52.456;13.634;2023-06-22T09:59:20;6.43;;;5.00;;
25155;SDS011;21913;52.456;13.634;2023-06-22T10:04:21;5.90;;;4.85;;
25155;SDS011;21913;52.456;13.634;2023-06-22T10:09:23;7.18;;;4.65;;
25155;SDS011;21913;52.456;13.634;2023-06-22T10:14:24;5.10;;;4.30;;
25155;SDS011;21913;52.456;13.634;2023-06-22T10:19:26;5.93;;;4.82;;
25155;SDS011;21913;52.456;13.634;2023-06-22T10:24:27;6.18;;;4.60;;
25155;SDS011;21913;52.456;13.634;2023-06-22T10:29:29;5.07;;;4.55;;
25155;SDS011;21913;52.456;13.634;2023-06-22T10:34:31;5.20;;;4.63;;
25155;SDS011;21913;52.456;13.634;2023-06-22T10:39:32;7.00;;;4.82;;
25155;SDS011;21913;52.456;13.634;2023-06-22T10:44:34;5.28;;;4.30;;
25155;SDS011;21913;52.456;13.634;2023-06-22T10:49:35;7.93;;;4.82;;
25155;SDS011;21913;52.456;13.634;2023-06-22T10:54:37;7.00;;;4.40;;
25155;SDS011;21913;52.456;13.634;2023-06-22T10:59:39;6.05;;;4.75;;
25155;SDS011;21913;52.456;13.634;2023-06-22T11:04:41;5.97;;;4.63;;
25155;SDS011;21913;52.456;13.634;2023-06-22T11:09:43;5.65;;;4.50;;
25155;SDS011;21913;52.456;13.634;2023-06-22T11:14:44;5.93;;;4.43;;
25155;SDS011;21913;52.456;13.634;2023-06-22T11:19:46;6.20;;;4.82;;
25155;SDS011;21913;52.456;13.634;2023-06-22T11:24:48;10.27;;;4.57;;
25155;SDS011;21913;52.456;13.634;2023-06-22T11:29:49;5.10;;;4.45;;
25155;SDS011;21913;52.456;13.634;2023-06-22T11:34:51;7.03;;;4.68;;
25155;SDS011;21913;52.456;13.634;2023-06-22T11:39:52;6.28;;;4.50;;
25155;SDS011;21913;52.456;13.634;2023-06-22T11:44:59;5.93;;;4.45;;
25155;SDS011;21913;52.456;13.634;2023-06-22T11:50:01;5.30;;;4.78;;
25155;SDS011;21913;52.456;13.634;2023-06-22T11:55:04;5.68;;;4.60;;
25155;SDS011;21913;52.456;13.634;2023-06-22T12:00:07;5.68;;;4.22;;
25155;SDS011;21913;52.456;13.634;2023-06-22T12:05:09;6.40;;;4.60;;
25155;SDS011;21913;52.456;13.634;2023-06-22T12:10:10;5.45;;;4.30;;
25155;SDS011;21913;52.456;13.634;2023-06-22T12:15:12;5.85;;;4.50;;
25155;SDS011;21913;52.456;13.634;2023-06-22T12:20:13;6.10;;;4.35;;
25155;SDS011;21913;52.456;13.634;2023-06-22T12:25:15;6.40;;;4.40;;
25155;SDS011;21913;52.456;13.634;2023-06-22T12:30:17;6.13;;;4.70;;
25155;SDS011;21913;52.456;13.634;2023-06-22T12:35:18;5.78;;;4.40;;
25155;SDS011;21913;52.456;13.634;2023-06-22T12:40:20;5.57;;;4.40;;
25155;SDS011;21913;52.456;13.634;2023-06-22T12:45:21;5.38;;;4.43;;
25155;SDS011;21913;52.456;13.634;2023-06-22T12:50:23;5.13;;;4.10;;
25155;SDS011;21913;52.456;13.634;2023-06-22T12:55:25;5.00;;;4.03;;
25155;SDS011;21913;52.456;13.634;2023-06-22T13:00:26;5.80;;;3.92;;
25155;SDS011;21913;52.456;13.634;2023-06-22T13:05:28;5.13;;;4.47;;
25155;SDS011;21913;52.456;13.634;2023-06-22T13:10:29;6.05;;;4.20;;
25155;SDS011;21913;52.456;13.634;2023-06-22T13:15:33;5.70;;;4.00;;
25155;SDS011;21913;52.456;13.634;2023-06-22T13:20:34;5.28;;;4.10;;
25155;SDS011;21913;52.456;13.634;2023-06-22T13:25:36;6.35;;;4.30;;
25155;SDS011;21913;52.456;13.634;2023-06-22T13:30:37;6.50;;;4.35;;
25155;SDS011;21913;52.456;13.634;2023-06-22T13:35:39;4.43;;;3.78;;
25155;SDS011;21913;52.456;13.634;2023-06-22T13:40:41;6.80;;;4.50;;
25155;SDS011;21913;52.456;13.634;2023-06-22T13:45:42;5.65;;;4.30;;
25155;SDS011;21913;52.456;13.634;2023-06-22T13:50:44;4.70;;;4.10;;
25155;SDS011;21913;52.456;13.634;2023-06-22T13:55:45;5.00;;;4.10;;
25155;SDS011;21913;52.456;13.634;2023-06-22T14:00:47;7.00;;;4.47;;
25155;SDS011;21913;52.456;13.634;2023-06-22T14:05:48;5.18;;;4.60;;
25155;SDS011;21913;52.456;13.634;2023-06-22T14:10:50;4.97;;;4.38;;
25155;SDS011;21913;52.456;13.634;2023-06-22T14:15:52;6.40;;;4.78;;
25155;SDS011;21913;52.456;13.634;2023-06-22T14:20:53;6.25;;;4.88;;
25155;SDS011;21913;52.456;13.634;2023-06-22T14:25:55;6.30;;;4.30;;
25155;SDS011;21913;52.456;13.634;2023-06-22T14:30:56;5.30;;;4.45;;
25155;SDS011;21913;52.456;13.634;2023-06-22T14:35:58;5.70;;;4.50;;
25155;SDS011;21913;52.456;13.634;2023-06-22T14:41:00;5.45;;;4.53;;
25155;SDS011;21913;52.456;13.634;2023-06-22T14:46:13;6.63;;;4.78;;
25155;SDS011;21913;52.456;13.634;2023-06-22T14:51:16;5.00;;;4.35;;
25155;SDS011;21913;52.456;13.634;2023-06-22T14:56:18;4.70;;;4.15;;
25155;SDS011;21913;52.456;13.634;2023-06-22T15:01:19;5.45;;;4.50;;
25155;SDS011;21913;52.456;13.634;2023-06-22T15:06:21;5.65;;;4.38;;
25155;SDS011;21913;52.456;13.634;2023-06-22T15:11:23;5.53;;;4.60;;
25155;SDS011;21913;52.456;13.634;2023-06-22T15:16:24;4.68;;;4.18;;
25155;SDS011;21913;52.456;13.634;2023-06-22T15:21:26;5.18;;;4.40;;
25155;SDS011;21913;52.456;13.634;2023-06-22T15:26:28;5.53;;;4.40;;
25155;SDS011;21913;52.456;13.634;2023-06-22T15:31:29;5.40;;;4.45;;
25155;SDS011;21913;52.456;13.634;2023-06-22T15:36:31;5.38;;;4.60;;
25155;SDS011;21913;52.456;13.634;2023-06-22T15:41:32;5.60;;;4.47;;
25155;SDS011;21913;52.456;13.634;2023-06-22T15:46:34;4.80;;;4.30;;
25155;SDS011;21913;52.456;13.634;2023-06-22T15:51:35;5.10;;;4.43;;
25155;SDS011;21913;52.456;13.634;2023-06-22T15:56:37;5.60;;;4.40;;
25155;SDS011;21913;52.456;13.634;2023-06-22T16:01:38;6.35;;;4.80;;
25155;SDS011;21913;52.456;13.634;2023-06-22T16:06:41;5.82;;;4.78;;
25155;SDS011;21913;52.456;13.634;2023-06-22T16:11:43;5.55;;;4.60;;
25155;SDS011;21913;52.456;13.634;2023-06-22T16:16:45;4.82;;;4.32;;
25155;SDS011;21913;52.456;13.634;2023-06-22T16:21:46;5.63;;;4.50;;
25155;SDS011;21913;52.456;13.634;2023-06-22T16:26:48;5.32;;;4.20;;
25155;SDS011;21913;52.456;13.634;2023-06-22T16:31:49;6.13;;;4.60;;
25155;SDS011;21913;52.456;13.634;2023-06-22T16:36:51;5.45;;;4.47;;
25155;SDS011;21913;52.456;13.634;2023-06-22T16:41:53;6.93;;;4.50;;
25155;SDS011;21913;52.456;13.634;2023-06-22T16:46:55;4.88;;;4.38;;
25155;SDS011;21913;52.456;13.634;2023-06-22T16:51:57;4.95;;;4.40;;
25155;SDS011;21913;52.456;13.634;2023-06-22T16:56:59;5.57;;;4.40;;
25155;SDS011;21913;52.456;13.634;2023-06-22T17:02:02;4.70;;;4.20;;
25155;SDS011;21913;52.456;13.634;2023-06-22T17:07:07;5.13;;;4.25;;
25155;SDS011;21913;52.456;13.634;2023-06-22T17:12:11;5.93;;;4.70;;
25155;SDS011;21913;52.456;13.634;2023-06-22T17:17:15;5.60;;;4.60;;
25155;SDS011;21913;52.456;13.634;2023-06-22T17:22:17;4.90;;;4.40;;
25155;SDS011;21913;52.456;13.634;2023-06-22T17:27:28;6.40;;;4.80;;
25155;SDS011;21913;52.456;13.634;2023-06-22T17:32:30;5.47;;;4.70;;
25155;SDS011;21913;52.456;13.634;2023-06-22T17:37:54;21.80;;;12.55;;
25155;SDS011;21913;52.456;13.634;2023-06-22T17:43:04;37.22;;;24.05;;
25155;SDS011;21913;52.456;13.634;2023-06-22T17:48:06;34.58;;;23.00;;
25155;SDS011;21913;52.456;13.634;2023-06-22T17:53:10;34.97;;;24.55;;
25155;SDS011;21913;52.456;13.634;2023-06-22T17:58:12;30.45;;;23.85;;
25155;SDS011;21913;52.456;13.634;2023-06-22T18:03:14;34.50;;;25.60;;
25155;SDS011;21913;52.456;13.634;2023-06-22T18:08:15;38.08;;;25.33;;
25155;SDS011;21913;52.456;13.634;2023-06-22T18:13:24;32.45;;;25.25;;
25155;SDS011;21913;52.456;13.634;2023-06-22T18:18:26;34.90;;;26.52;;
25155;SDS011;21913;52.456;13.634;2023-06-22T18:23:29;31.38;;;25.02;;
25155;SDS011;21913;52.456;13.634;2023-06-22T18:28:32;35.88;;;27.38;;
25155;SDS011;21913;52.456;13.634;2023-06-22T18:33:35;35.95;;;26.80;;
25155;SDS011;21913;52.456;13.634;2023-06-22T18:38:40;30.45;;;24.73;;
25155;SDS011;21913;52.456;13.634;2023-06-22T18:43:43;34.85;;;24.05;;
25155;SDS011;21913;52.456;13.634;2023-06-22T18:48:44;28.60;;;21.40;;
25155;SDS011;21913;52.456;13.634;2023-06-22T18:53:47;27.58;;;21.80;;
25155;SDS011;21913;52.456;13.634;2023-06-22T18:59:03;29.88;;;21.17;;
25155;SDS011;21913;52.456;13.634;2023-06-22T19:04:15;28.17;;;20.15;;
25155;SDS011;21913;52.456;13.634;2023-06-22T19:09:17;24.50;;;19.35;;
25155;SDS011;21913;52.456;13.634;2023-06-22T19:14:19;24.80;;;18.45;;
25155;SDS011;21913;52.456;13.634;2023-06-22T19:19:22;23.90;;;17.80;;
25155;SDS011;21913;52.456;13.634;2023-06-22T19:24:28;27.73;;;16.92;;
25155;SDS011;21913;52.456;13.634;2023-06-22T19:29:33;18.70;;;15.70;;
25155;SDS011;21913;52.456;13.634;2023-06-22T19:34:35;21.42;;;16.23;;
25155;SDS011;21913;52.456;13.634;2023-06-22T19:39:40;19.08;;;15.60;;
25155;SDS011;21913;52.456;13.634;2023-06-22T19:44:42;17.95;;;14.00;;
25155;SDS011;21913;52.456;13.634;2023-06-22T19:49:45;17.80;;;14.02;;
25155;SDS011;21913;52.456;13.634;2023-06-22T19:54:47;17.48;;;13.75;;
25155;SDS011;21913;52.456;13.634;2023-06-22T19:59:49;16.98;;;13.52;;
25155;SDS011;21913;52.456;13.634;2023-06-22T20:04:50;18.23;;;14.85;;
25155;SDS011;21913;52.456;13.634;2023-06-22T20:15:12;15.60;;;13.00;;
25155;SDS011;21913;52.456;13.634;2023-06-22T20:20:23;16.98;;;14.00;;
25155;SDS011;21913;52.456;13.634;2023-06-22T20:25:28;15.50;;;13.13;;
25155;SDS011;21913;52.456;13.634;2023-06-22T20:30:30;14.80;;;12.05;;
25155;SDS011;21913;52.456;13.634;2023-06-22T20:35:33;14.90;;;12.38;;
25155;SDS011;21913;52.456;13.634;2023-06-22T20:40:36;16.20;;;11.77;;
25155;SDS011;21913;52.456;13.634;2023-06-22T20:45:37;13.02;;;11.38;;
25155;SDS011;21913;52.456;13.634;2023-06-22T20:50:39;12.82;;;11.43;;
25155;SDS011;21913;52.456;13.634;2023-06-22T20:55:40;13.98;;;11.80;;
25155;SDS011;21913;52.456;13.634;2023-06-22T21:00:42;13.02;;;10.77;;
25155;SDS011;21913;52.456;13.634;2023-06-22T21:05:44;12.13;;;10.93;;
25155;SDS011;21913;52.456;13.634;2023-06-22T21:10:45;13.05;;;11.27;;
25155;SDS011;21913;52.456;13.634;2023-06-22T21:15:47;15.13;;;11.02;;
25155;SDS011;21913;52.456;13.634;2023-06-22T21:20:48;11.75;;;10.55;;
25155;SDS011;21913;52.456;13.634;2023-06-22T21:25:50;12.68;;;10.50;;
25155;SDS011;21913;52.456;13.634;2023-06-22T21:30:51;14.27;;;10.82;;
25155;SDS011;21913;52.456;13.634;2023-06-22T21:35:53;11.85;;;10.27;;
25155;SDS011;21913;52.456;13.634;2023-06-22T21:40:54;12.05;;;10.60;;
25155;SDS011;21913;52.456;13.634;2023-06-22T21:45:56;11.13;;;9.93;;
25155;SDS011;21913;52.456;13.634;2023-06-22T21:50:57;11.32;;;10.13;;
25155;SDS011;21913;52.456;13.634;2023-06-22T21:55:59;10.68;;;9.57;;
25155;SDS011;21913;52.456;13.634;2023-06-22T22:01:00;12.07;;;10.15;;
25155;SDS011;21913;52.456;13.634;2023-06-22T22:06:02;11.45;;;10.20;;
25155;SDS011;21913;52.456;13.634;2023-06-22T22:11:04;12.50;;;9.93;;
25155;SDS011;21913;52.456;13.634;2023-06-22T22:16:05;11.98;;;10.00;;
25155;SDS011;21913;52.456;13.634;2023-06-22T22:21:07;11.65;;;9.75;;
25155;SDS011;21913;52.456;13.634;2023-06-22T22:26:08;11.32;;;9.63;;
25155;SDS011;21913;52.456;13.634;2023-06-22T22:31:10;11.82;;;10.07;;
25155;SDS011;21913;52.456;13.634;2023-06-22T22:36:11;11.63;;;9.80;;
25155;SDS011;21913;52.456;13.634;2023-06-22T22:41:13;11.75;;;9.82;;
25155;SDS011;21913;52.456;13.634;2023-06-22T22:46:14;11.32;;;9.50;;
25155;SDS011;21913;52.456;13.634;2023-06-22T22:51:16;10.27;;;9.15;;
25155;SDS011;21913;52.456;13.634;2023-06-22T22:56:18;10.02;;;8.93;;
25155;SDS011;21913;52.456;13.634;2023-06-22T23:01:19;10.18;;;9.00;;
25155;SDS011;21913;52.456;13.634;2023-06-22T23:06:21;10.20;;;8.82;;
25155;SDS011;21913;52.456;13.634;2023-06-22T23:11:23;10.98;;;9.30;;
25155;SDS011;21913;52.456;13.634;2023-06-22T23:16:26;10.48;;;8.82;;
25155;SDS011;21913;52.456;13.634;2023-06-22T23:21:28;10.02;;;8.85;;
25155;SDS011;21913;52.456;13.634;2023-06-22T23:26:29;10.93;;;8.23;;
25155;SDS011;21913;52.456;13.634;2023-06-22T23:31:31;10.07;;;8.40;;
25155;SDS011;21913;52.456;13.634;2023-06-22T23:36:33;9.80;;;8.75;;
25155;SDS011;21913;52.456;13.634;2023-06-22T23:41:35;9.55;;;8.55;;
25155;SDS011;21913;52.456;13.634;2023-06-22T23:46:36;8.82;;;7.57;;
25155;SDS011;21913;52.456;13.634;2023-06-22T23:51:38;9.32;;;8.23;;
25155;SDS011;21913;52.456;13.634;2023-06-22T23:56:39;9.02;;;7.80;;
